EI4HQ Weather Reports


Display with metric or nautical units.
time (UTC)temp
F
wind
direction
speed
MPH
gust
MPH
rain 1hr
in
rain 24hr
in
rain mn
in
humidity
%
barometer
mb
20181115183719 55 186 7.0 10.0 0.00 0.00 0.00 94 1013.5
20181115182819 55 182 7.0 12.0 0.00 0.00 0.00 94 1013.3
20181115181919 55 185 6.0 11.0 0.00 0.00 0.00 94 1013.4
20181115181019 55 184 6.0 13.0 0.00 0.00 0.00 94 1013.3
20181115180119 55 189 5.0 9.0 0.00 0.00 0.00 94 1013.2
20181115175219 55 194 5.0 9.0 0.00 0.00 0.00 94 1013.2
20181115174319 55 191 6.0 11.0 0.00 0.00 0.00 94 1013.1
20181115173419 55 193 5.0 11.0 0.00 0.00 0.00 94 1013.0
20181115172519 55 189 7.0 11.0 0.00 0.00 0.00 94 1012.6
20181115171619 55 189 6.0 11.0 0.00 0.00 0.00 94 1012.5
20181115170719 55 193 6.0 12.0 0.00 0.00 0.00 94 1012.3
20181115165819 55 190 6.0 13.0 0.00 0.00 0.00 94 1012.2
20181115164919 55 186 7.0 13.0 0.00 0.00 0.00 94 1012.1
20181115164019 55 184 6.0 15.0 0.00 0.00 0.00 94 1011.9
20181115163119 55 184 6.0 11.0 0.00 0.00 0.00 94 1012.0
20181115162219 55 181 7.0 12.0 0.00 0.00 0.00 94 1012.0
20181115161319 55 181 8.0 14.0 0.00 0.00 0.00 94 1011.9
20181115160419 55 190 6.0 12.0 0.00 0.00 0.00 94 1011.8
20181115155519 55 191 6.0 11.0 0.00 0.00 0.00 94 1011.7
20181115154619 55 183 8.0 13.0 0.00 0.00 0.00 94 1011.6
20181115153719 55 172 9.0 15.0 0.00 0.00 0.00 94 1011.5
20181115152819 55 173 10.0 15.0 0.00 0.00 0.00 94 1011.6
20181115151919 55 172 10.0 16.0 0.00 0.00 0.00 94 1011.5
20181115151019 55 173 9.0 15.0 0.00 0.00 0.00 94 1011.5
20181115150119 55 172 8.0 13.0 0.00 0.00 0.00 94 1011.3
20181115145219 55 172 7.0 12.0 0.00 0.00 0.00 94 1011.3
20181115144320 55 170 6.0 10.0 0.00 0.00 0.00 94 1011.2
20181115143419 55 166 6.0 10.0 0.00 0.00 0.00 94 1011.1
20181115142519 55 164 8.0 14.0 0.00 0.00 0.00 94 1010.9
20181115141619 55 169 9.0 16.0 0.00 0.00 0.00 94 1011.0
20181115140719 55 175 9.0 15.0 0.00 0.00 0.00 94 1011.0
20181115135819 55 170 7.0 13.0 0.00 0.00 0.00 94 1011.0
20181115134919 55 179 6.0 11.0 0.00 0.00 0.00 94 1010.9
20181115134019 55 181 5.0 8.0 0.00 0.00 0.00 94 1011.0
20181115133119 55 189 4.0 8.0 0.00 0.00 0.00 94 1011.0
20181115132219 55 218 4.0 9.0 0.00 0.00 0.00 94 1011.0
20181115131319 55 246 6.0 13.0 0.00 0.00 0.00 94 1010.9
20181115130419 55 244 5.0 13.0 0.00 0.00 0.00 94 1011.0
20181115125519 55 250 5.0 9.0 0.00 0.00 0.00 94 1011.0
20181115124619 55 246 6.0 14.0 0.00 0.00 0.00 94 1011.0
20181115123719 55 254 7.0 15.0 0.00 0.00 0.00 94 1010.9
20181115122819 55 255 7.0 16.0 0.00 0.00 0.00 94 1010.7
20181115121919 55 257 7.0 15.0 0.00 0.00 0.00 94 1010.5
20181115121019 55 253 9.0 17.0 0.00 0.00 0.00 94 1010.2
20181115120119 55 217 9.0 22.0 0.00 0.00 0.00 94 1010.0
20181115115219 55 181 21.0 34.0 0.00 0.00 0.00 94 1009.6
20181115114319 55 179 23.0 39.0 0.00 0.00 0.00 94 1009.2
20181115113419 55 177 26.0 42.0 0.00 0.00 0.00 94 1009.0
20181115112519 55 174 25.0 38.0 0.00 0.00 0.00 94 1008.9
20181115111619 55 174 24.0 37.0 0.00 0.00 0.00 94 1009.0
20181115110719 53 176 25.0 38.0 0.00 0.00 0.00 92 1008.9
20181115105819 53 173 26.0 43.0 0.00 0.00 0.00 92 1008.8
20181115104919 53 174 24.0 39.0 0.00 0.00 0.00 92 1008.7
20181115104019 53 176 24.0 37.0 0.00 0.00 0.00 92 1008.9
20181115103119 53 175 23.0 35.0 0.00 0.00 0.00 92 1008.9
20181115102220 53 177 25.0 37.0 0.00 0.00 0.00 92 1008.8
20181115101319 53 179 25.0 34.0 0.00 0.00 0.00 92 1008.8
20181115100419 53 177 24.0 39.0 0.00 0.00 0.00 92 1008.8
20181115095519 53 178 26.0 42.0 0.00 0.00 0.00 92 1008.7
20181115094619 53 179 24.0 42.0 0.00 0.00 0.00 92 1008.7
20181115093719 53 178 25.0 45.0 0.00 0.00 0.00 92 1008.6
20181115092819 53 178 26.0 44.0 0.00 0.00 0.00 92 1008.6
20181115091919 53 177 25.0 35.0 0.00 0.00 0.00 92 1008.5
20181115091019 53 174 25.0 38.0 0.00 0.00 0.00 92 1008.7
20181115090119 53 176 23.0 35.0 0.00 0.00 0.00 92 1008.6
20181115085219 53 172 21.0 35.0 0.00 0.00 0.00 92 1008.5
20181115084319 53 167 20.0 32.0 0.00 0.00 0.00 92 1008.6
20181115083419 53 166 21.0 32.0 0.00 0.00 0.00 92 1008.5
20181115082519 53 167 21.0 34.0 0.00 0.00 0.00 92 1008.5
20181115081619 53 166 21.0 31.0 0.00 0.00 0.00 92 1008.4
20181115080719 53 166 19.0 29.0 0.00 0.00 0.00 92 1008.6
20181115075819 53 164 21.0 31.0 0.00 0.00 0.00 92 1008.5
20181115074919 53 167 18.0 29.0 0.00 0.00 0.00 92 1008.5
20181115074019 53 168 19.0 30.0 0.00 0.00 0.00 92 1008.4
20181115073120 53 167 21.0 30.0 0.00 0.00 0.00 92 1008.3
20181115072219 53 168 20.0 31.0 0.00 0.00 0.00 92 1008.2
20181115071319 53 165 21.0 30.0 0.00 0.00 0.00 92 1008.2
20181115070419 53 165 21.0 31.0 0.00 0.00 0.00 92 1008.1
20181115065519 53 167 21.0 33.0 0.00 0.00 0.00 92 1008.2
20181115064619 53 165 21.0 36.0 0.00 0.00 0.00 92 1008.2
20181115063719 53 166 19.0 29.0 0.00 0.00 0.00 92 1008.3
20181115062819 53 168 18.0 31.0 0.00 0.00 0.00 92 1008.4
20181115061919 53 167 19.0 29.0 0.00 0.00 0.00 92 1008.3
20181115061019 53 169 20.0 34.0 0.00 0.00 0.00 92 1008.4
20181115060119 53 164 22.0 34.0 0.00 0.00 0.00 92 1008.5
20181115055219 53 168 21.0 32.0 0.00 0.00 0.00 92 1008.5
20181115054319 53 167 21.0 33.0 0.00 0.00 0.00 92 1008.4
20181115053419 53 164 21.0 33.0 0.00 0.00 0.00 92 1008.5
20181115052519 53 166 22.0 37.0 0.00 0.00 0.00 92 1008.5
20181115051619 53 167 20.0 36.0 0.00 0.00 0.00 92 1008.5
20181115050719 53 166 22.0 34.0 0.00 0.00 0.00 92 1008.5
20181115045819 53 166 22.0 32.0 0.00 0.00 0.00 92 1008.5
20181115044919 53 163 22.0 32.0 0.00 0.00 0.00 92 1008.5
20181115044019 53 163 20.0 31.0 0.00 0.00 0.00 92 1008.4
20181115043119 53 165 22.0 36.0 0.00 0.00 0.00 92 1008.5
20181115042219 53 167 22.0 40.0 0.00 0.00 0.00 92 1008.4
20181115041319 53 167 22.0 33.0 0.00 0.00 0.00 92 1008.5
20181115040419 53 166 22.0 36.0 0.00 0.00 0.00 92 1008.5
20181115035519 53 166 23.0 34.0 0.00 0.00 0.00 92 1008.7
20181115034619 53 165 21.0 37.0 0.00 0.00 0.00 92 1008.7
20181115033720 53 167 21.0 35.0 0.00 0.00 0.00 92 1008.6
20181115032819 53 168 22.0 35.0 0.00 0.00 0.00 92 1008.7
20181115031919 53 165 21.0 32.0 0.00 0.00 0.00 92 1008.7
20181115031019 53 168 21.0 32.0 0.00 0.00 0.00 92 1008.6
20181115030119 53 166 21.0 30.0 0.00 0.00 0.00 92 1008.7
20181115025219 53 169 20.0 34.0 0.00 0.00 0.00 92 1008.9
20181115024319 53 166 20.0 29.0 0.00 0.00 0.00 92 1008.9
20181115023419 53 170 20.0 33.0 0.00 0.00 0.00 92 1008.9
20181115022520 53 169 19.0 33.0 0.00 0.00 0.00 92 1009.0
20181115021619 53 167 20.0 30.0 0.00 0.00 0.00 92 1008.9
20181115020719 53 168 20.0 32.0 0.00 0.00 0.00 92 1008.9
20181115015819 53 169 20.0 30.0 0.00 0.00 0.00 92 1008.9
20181115014919 53 169 19.0 33.0 0.00 0.00 0.00 92 1008.9
20181115014019 53 171 20.0 34.0 0.00 0.00 0.00 92 1009.0
20181115013119 53 172 20.0 31.0 0.00 0.00 0.00 92 1009.1
20181115012219 53 169 21.0 30.0 0.00 0.00 0.00 92 1009.1
20181115011319 53 172 21.0 35.0 0.00 0.00 0.00 92 1009.2
20181115010419 53 172 20.0 35.0 0.00 0.00 0.00 92 1009.2
20181115005519 53 174 20.0 31.0 0.00 0.00 0.00 92 1009.3
20181115004619 53 173 21.0 33.0 0.00 0.00 0.00 92 1009.4
20181115003719 53 171 21.0 33.0 0.00 0.00 0.00 92 1009.3
20181115002818 53 171 20.0 33.0 0.00 0.00 0.00 92 1009.4
20181115001919 53 173 20.0 32.0 0.00 0.00 0.00 92 1009.4
20181115001019 53 173 22.0 34.0 0.00 0.00 0.00 92 1009.4
20181115000119 53 174 21.0 32.0 0.00 0.00 0.00 92 1009.5
20181114235219 53 175 21.0 32.0 0.00 0.00 0.00 92 1009.5
20181114233419 53 175 20.0 33.0 0.00 0.00 0.00 92 1009.5
20181114232519 53 174 21.0 36.0 0.00 0.00 0.00 92 1009.5
20181114231619 53 173 20.0 32.0 0.00 0.00 0.00 92 1009.4
20181114230719 53 173 19.0 32.0 0.00 0.00 0.00 92 1009.4
20181114225819 53 172 20.0 38.0 0.00 0.00 0.00 92 1009.4
20181114224919 53 171 21.0 38.0 0.00 0.00 0.00 92 1009.4
20181114224019 53 173 21.0 33.0 0.00 0.00 0.00 92 1009.3
20181114223119 53 173 20.0 32.0 0.00 0.00 0.00 92 1009.3
20181114222219 53 170 20.0 28.0 0.00 0.00 0.00 92 1009.4
20181114221318 53 173 23.0 36.0 0.00 0.00 0.00 92 1009.3
20181114220419 53 174 23.0 41.0 0.00 0.00 0.00 92 1009.3
20181114215518 53 173 23.0 37.0 0.00 0.00 0.00 92 1009.1
20181114214619 53 173 24.0 35.0 0.00 0.00 0.00 92 1009.2
20181114213718 53 170 22.0 35.0 0.00 0.00 0.00 92 1009.2
20181114212819 53 169 22.0 36.0 0.00 0.00 0.00 92 1009.1
20181114211918 53 171 22.0 34.0 0.00 0.00 0.00 92 1009.3
20181114211019 53 171 23.0 37.0 0.00 0.00 0.00 92 1009.2
20181114210119 53 172 22.0 39.0 0.00 0.00 0.00 92 1009.2
20181114205219 53 169 21.0 37.0 0.00 0.00 0.00 92 1009.4
20181114204319 53 172 24.0 40.0 0.00 0.00 0.00 92 1009.1
20181114203419 53 174 23.0 37.0 0.00 0.00 0.00 92 1009.1
20181114202518 53 170 23.0 35.0 0.00 0.00 0.00 92 1009.1
20181114201619 53 172 23.0 35.0 0.00 0.00 0.00 92 1009.1
20181114200718 53 172 22.0 37.0 0.00 0.00 0.00 92 1009.1
20181114195819 53 174 24.0 36.0 0.00 0.00 0.00 92 1009.2
20181114194918 53 174 23.0 39.0 0.00 0.00 0.00 92 1009.1
20181114194018 53 172 25.0 41.0 0.00 0.00 0.00 92 1009.1
20181114193118 53 173 23.0 38.0 0.00 0.00 0.00 92 1009.0
20181114192219 53 173 23.0 39.0 0.00 0.00 0.00 92 1009.0
20181114191318 53 175 24.0 39.0 0.00 0.00 0.00 92 1009.0
20181114190419 53 175 23.0 38.0 0.00 0.00 0.00 92 1008.7
20181114185519 53 173 23.0 37.0 0.00 0.00 0.00 92 1008.9
20181114184618 53 174 25.0 40.0 0.00 0.00 0.00 92 1008.9